TAF Text Data
IDs:
Format:
Raw Decoded Include METAR

Data at: 0252 UTC 23 Sep 2018

KPGV 222326Z 2300/2324 00000KT P6SM FEW250
  FM230800 00000KT 3SM BR SCT005
  FM231230 09004KT P6SM FEW015 SCT250 AMD LTD TO CLD VIS AND WIND